Impacts METAR Board INFO
IDs:

KSLC - Salt Lake City Intl, UT, US

Updated at: 0820 UTC 12 Dec 2017
Potential Impact None Slight Moderate High
Time11/20Z 11/21Z 11/22Z 11/23Z 12/00Z 12/01Z 12/02Z 12/03Z 12/04Z 12/05Z 12/06Z 12/07Z 12/08Z
VIS0.25 0.25 0.25 0.25 0.25 0.25 0.25 0.25 0.25 0.25 0.25 0.25 0.25
CIG5 4 4 4 3 2 2 2 3 3 4 3 6
CoverOVCOVCOVCOVCOVCOVCOVXOVCOVCOVXOVCOVCOVC
FltCatLIFRLIFRLIFRLIFRLIFRLIFRLIFRLIFRLIFRLIFRLIFRLIFRLIFR
WXBRBRBRBRBRBRFZFG-SN FZFGBRFZFGBR-SN FZFG-SN FZFG
WDir31035030035035033000000700
WSpd5 5 5 4 4 3 0 0 0 0 0 3 0
WGst-- -- -- -- -- -- -- -- -- -- -- -- --
Raw hourly METARs
KSLC 111954Z 31005KT 1/4SM R16L/P6000FT BR OVC005 M02/M03 A3060 RMK AO2 SFC VIS 1 3/4 SNE01 SLP390 P0000 T10171033
KSLC 112054Z 35005KT 1/4SM R16L/P6000FT BR OVC004 M02/M03 A3059 RMK AO2 SFC VIS 1 1/4 SLP385 60000 I3000 T10171033 56012
KSLC 112154Z 30005KT 1/4SM R16L/P6000FT BR OVC004 M02/M03 A3057 RMK AO2 SFC VIS 1 1/2 SLP380 T10221033
KSLC 112302Z 35004KT 1/4SM R16L/P6000FT BR OVC004 M02/M03 A3056 RMK AO2 SFC VIS 1 1/4 T10221033
KSLC 112354Z 35004KT 1/4SM R16L/P6000FT BR OVC003 M03/M03 A3057 RMK AO2 SFC VIS 1 SLP383 60000 I6000 T10281033 11011 21028 55007
KSLC 120054Z 33003KT 1/4SM R16L/2000V5500FT BR OVC002 M03/M03 A3057 RMK AO2 SFC VIS 1 SLP384 T10281033
KSLC 120154Z 00000KT 1/4SM R16L/1400V1600FT FZFG VV002 M03/M03 A3058 RMK AO2 SFC VIS 1/2 SNB36E48 SLP386 P0000 T10281033
KSLC 120254Z 00000KT 1/4SM R16L/1200V1800FT -SN FZFG OVC002 M03/M04 A3059 RMK AO2 SFC VIS 1/2 SNB09 SLP387 P0001 60001 T10281039 51007 VISNO NW RNWY $
KSLC 120354Z 00000KT 1/4SM R16L/1200FT BR OVC003 M03/M04 A3060 RMK AO2 SFC VIS 1 SNE54 SLP390 P0000 T10281039 VISNO NW RNWY $
KSLC 120454Z 00000KT 1/4SM R16L/1000V1400FT FZFG VV003 M03/M04 A3060 RMK AO2 SNB14E46 SLP390 P0000 T10331039 VISNO NW RNWY $
KSLC 120554Z 00000KT 1/4SM R16L/1400V1800FT BR OVC004 M03/M04 A3061 RMK AO2 SFC VIS 3/4 SNB36E45 SLP391 P0000 60001 T10331039 11028 21033 51006 VISNO NW RNWY $
KSLC 120654Z 07003KT 1/4SM R16L/2000V5000FT -SN FZFG OVC003 M04/M04 A3060 RMK AO2 SNB0558E21B50 SLP390 P0000 T10391044 410111061 VISNO NW RNWY $
KSLC 120804Z 00000KT 1/4SM R16L/1600V1800FT -SN FZFG OVC006 M04/M05 A3060 RMK AO2 P0000 T10391050 VISNO NW RNWY $